Lake Forest, California
Current Conditions -  °F | °C
As of 4:53 PM on Sunday 23 Nov 2014 (Local Time) from KSNA Reporting Station
Broken Clouds Broken Clouds  
Wind Chill: 76°   Ceiling: 25000
Heat Index: 76°   Visibility: 10mi
Dew Point: 10°   Wind: 0mph
Humidity: 8%   Direction: NA
Pressure: 30.07"   Gusts: NA
Location:  33.65°N, 117.69°W
Report Text: KSNA 240053Z 00000KT 10SM BKN250 24/M12 A3007 RMK AO2 SLP181 T02441122 $
Loading
Personal Weather Stations






























Interactive Weather Map New forecast layout! Learn more

10-Day Weather Forecast

Advertisements
Track Severe Weather on mobile